createdAt,value
2018-07-06T00:02:34.030Z,100229.23
2018-07-06T00:05:12.588Z,100230.36
2018-07-06T00:07:51.014Z,100229.74
2018-07-06T00:10:29.531Z,100224.48
2018-07-06T00:13:08.120Z,100224.08
2018-07-06T00:15:46.511Z,100223.42
2018-07-06T00:18:24.859Z,100227.17
2018-07-06T00:21:03.220Z,100225.42
2018-07-06T00:23:41.739Z,100228.56
2018-07-06T00:26:20.244Z,100222.00
2018-07-06T00:28:58.915Z,100221.30
2018-07-06T00:31:37.364Z,100225.62
2018-07-06T00:34:15.759Z,100221.06
2018-07-06T00:36:54.367Z,100230.39
2018-07-06T00:39:32.944Z,100224.71
2018-07-06T00:42:11.516Z,100225.69
2018-07-06T00:44:50.052Z,100226.80
2018-07-06T00:47:28.560Z,100222.61
2018-07-06T00:50:07.051Z,100229.09
2018-07-06T00:52:45.352Z,100233.95
2018-07-06T00:55:23.837Z,100237.64
2018-07-06T00:58:02.259Z,100242.06
2018-07-06T01:00:40.542Z,100241.30
2018-07-06T01:03:19.072Z,100240.89
2018-07-06T01:05:57.516Z,100240.07
2018-07-06T01:08:36.123Z,100239.63
2018-07-06T01:11:14.611Z,100247.73
2018-07-06T01:13:53.088Z,100246.57
2018-07-06T01:16:31.507Z,100248.84
2018-07-06T01:19:10.029Z,100248.33
2018-07-06T01:21:48.517Z,100245.62
2018-07-06T01:24:27.056Z,100247.63
2018-07-06T01:27:05.484Z,100236.80
2018-07-06T01:29:44.092Z,100245.29
2018-07-06T01:32:22.715Z,100250.16
2018-07-06T01:35:01.240Z,100256.58
2018-07-06T01:37:39.687Z,100250.80
2018-07-06T01:40:18.167Z,100252.47
2018-07-06T01:42:56.632Z,100250.34
2018-07-06T01:45:35.095Z,100250.83
2018-07-06T01:48:13.531Z,100248.20
2018-07-06T01:50:52.033Z,100241.92
2018-07-06T01:53:30.627Z,100243.13
2018-07-06T01:56:09.180Z,100242.63
2018-07-06T01:58:47.750Z,100252.88
2018-07-06T02:01:26.088Z,100249.84
2018-07-06T02:04:04.703Z,100253.10
2018-07-06T02:06:43.201Z,100252.09
2018-07-06T02:09:24.047Z,100249.63
2018-07-06T02:12:02.480Z,100250.60
2018-07-06T02:14:40.991Z,100250.44
2018-07-06T02:17:19.383Z,100253.28
2018-07-06T02:19:57.895Z,100245.38
2018-07-06T02:22:36.427Z,100254.02
2018-07-06T02:25:14.867Z,100246.68
2018-07-06T02:27:53.423Z,100250.55
2018-07-06T02:30:31.987Z,100258.48
2018-07-06T02:33:10.532Z,100265.86
2018-07-06T02:35:48.984Z,100261.58
2018-07-06T02:38:27.342Z,100262.06
2018-07-06T02:41:05.733Z,100270.98
2018-07-06T02:43:44.223Z,100268.31
2018-07-06T02:46:22.727Z,100265.77
2018-07-06T02:49:01.080Z,100273.17
2018-07-06T02:51:39.707Z,100276.62
2018-07-06T02:54:18.295Z,100275.80
2018-07-06T02:56:56.807Z,100269.25
2018-07-06T02:59:35.407Z,100269.52
2018-07-06T03:02:13.911Z,100262.84
2018-07-06T03:04:52.393Z,100260.41
2018-07-06T03:07:30.811Z,100268.52
2018-07-06T03:10:09.357Z,100266.79
2018-07-06T03:12:47.847Z,100266.90
2018-07-06T03:15:26.393Z,100268.92
2018-07-06T03:18:04.806Z,100271.34
2018-07-06T03:20:43.287Z,100269.20
2018-07-06T03:23:21.754Z,100267.80
2018-07-06T03:26:00.075Z,100272.77
2018-07-06T03:28:38.696Z,100277.42
2018-07-06T03:31:17.010Z,100282.74
2018-07-06T03:33:55.657Z,100276.12
2018-07-06T03:36:33.968Z,100280.42
2018-07-06T03:39:12.335Z,100280.36
2018-07-06T03:41:50.859Z,100284.50
2018-07-06T03:44:29.291Z,100281.53
2018-07-06T03:47:07.859Z,100279.12
2018-07-06T03:49:46.358Z,100284.77
2018-07-06T03:52:24.999Z,100280.92
2018-07-06T03:55:03.565Z,100291.22
2018-07-06T03:57:42.131Z,100293.11
2018-07-06T04:00:20.549Z,100298.44
2018-07-06T04:02:59.087Z,100296.38
2018-07-06T04:05:37.596Z,100296.48
2018-07-06T04:08:16.035Z,100291.92
2018-07-06T04:10:54.407Z,100296.91
2018-07-06T04:13:32.975Z,100301.20
2018-07-06T04:16:11.447Z,100305.77
2018-07-06T04:18:49.840Z,100309.06
2018-07-06T04:21:28.605Z,100309.89
2018-07-06T04:24:07.114Z,100307.86
2018-07-06T04:26:45.652Z,100312.63
2018-07-06T04:29:24.146Z,100319.43
2018-07-06T04:32:02.554Z,100317.91
2018-07-06T04:34:41.007Z,100317.80
2018-07-06T04:37:19.544Z,100325.11
2018-07-06T04:39:57.951Z,100326.46
2018-07-06T04:42:36.479Z,100323.62
2018-07-06T04:45:14.852Z,100332.45
2018-07-06T04:47:53.363Z,100335.63
2018-07-06T04:50:32.011Z,100338.33
2018-07-06T04:53:10.288Z,100345.53
2018-07-06T04:55:48.783Z,100341.48
2018-07-06T04:58:27.167Z,100345.31
2018-07-06T05:01:05.715Z,100346.30
2018-07-06T05:03:44.258Z,100345.69
2018-07-06T05:06:22.820Z,100348.06
2018-07-06T05:09:01.293Z,100343.98
2018-07-06T05:11:39.654Z,100353.74
2018-07-06T05:14:18.243Z,100351.71
2018-07-06T05:16:56.676Z,100359.12
2018-07-06T05:19:36.199Z,100359.93
2018-07-06T05:22:14.763Z,100365.11
2018-07-06T05:24:53.161Z,100359.90
2018-07-06T05:27:31.648Z,100363.28
2018-07-06T05:30:10.195Z,100365.71
2018-07-06T05:32:48.728Z,100368.15
2018-07-06T05:35:27.132Z,100362.06
2018-07-06T05:38:05.663Z,100366.94
2018-07-06T05:40:44.056Z,100364.50
2018-07-06T05:43:22.527Z,100371.20
2018-07-06T05:46:00.907Z,100376.07
2018-07-06T05:48:39.412Z,100369.61
2018-07-06T05:51:17.940Z,100371.61
2018-07-06T05:53:56.549Z,100378.14
2018-07-06T05:56:35.122Z,100378.08
2018-07-06T05:59:13.703Z,100387.09
2018-07-06T06:01:52.204Z,100390.19
2018-07-06T06:04:30.624Z,100383.47
2018-07-06T06:07:09.128Z,100384.14
2018-07-06T06:09:35.978Z,100388.59
2018-07-06T06:12:02.870Z,100387.09
2018-07-06T06:14:29.731Z,100389.43
2018-07-06T06:16:56.600Z,100383.80
2018-07-06T06:19:23.462Z,100393.88
2018-07-06T06:21:50.320Z,100398.84
2018-07-06T06:24:17.175Z,100396.34
2018-07-06T06:26:44.027Z,100398.92
2018-07-06T06:29:10.887Z,100398.12
2018-07-06T06:31:37.771Z,100397.28
2018-07-06T06:34:04.627Z,100396.41
2018-07-06T06:36:32.110Z,100399.59
2018-07-06T06:38:58.990Z,100402.91
2018-07-06T06:41:25.859Z,100399.19
2018-07-06T06:43:52.732Z,100400.33
2018-07-06T06:46:19.591Z,100397.20
2018-07-06T06:48:46.573Z,100394.09
2018-07-06T06:51:13.446Z,100400.13
2018-07-06T06:53:40.595Z,100404.27
2018-07-06T06:56:08.902Z,100413.25
2018-07-06T06:58:41.259Z,100417.28
2018-07-06T07:01:09.210Z,100415.16
2018-07-06T07:03:36.185Z,100412.97
2018-07-06T07:06:03.061Z,100414.81
2018-07-06T07:08:29.935Z,100419.97
2018-07-06T07:10:56.995Z,100418.45
2018-07-06T07:13:23.854Z,100422.40
2018-07-06T07:15:50.723Z,100415.61
2018-07-06T07:18:17.663Z,100417.80
2018-07-06T07:20:44.583Z,100418.64
2018-07-06T07:23:11.671Z,100418.20
2018-07-06T07:25:38.544Z,100419.91
2018-07-06T07:28:05.427Z,100418.93
2018-07-06T07:30:32.298Z,100415.63
2018-07-06T07:32:59.218Z,100424.37
2018-07-06T07:35:26.121Z,100420.39
2018-07-06T07:37:53.120Z,100424.39
2018-07-06T07:40:19.995Z,100429.68
2018-07-06T07:42:46.864Z,100433.95
2018-07-06T07:45:13.743Z,100430.56
2018-07-06T07:47:40.619Z,100431.23
2018-07-06T07:50:07.478Z,100423.17
2018-07-06T07:52:45.930Z,100439.22
2018-07-06T07:55:12.837Z,100434.41
2018-07-06T07:57:39.671Z,100438.79
2018-07-06T08:00:06.538Z,100438.26
2018-07-06T08:02:33.491Z,100437.81
2018-07-06T08:05:00.351Z,100439.12
2018-07-06T08:07:27.211Z,100434.95
2018-07-06T08:09:54.072Z,100438.44
2018-07-06T08:12:20.947Z,100443.73
2018-07-06T08:14:48.079Z,100447.09
2018-07-06T08:17:14.944Z,100455.72
2018-07-06T08:19:41.828Z,100454.98
2018-07-06T08:22:08.688Z,100454.72
2018-07-06T08:24:35.564Z,100453.13
2018-07-06T08:27:02.485Z,100459.25
2018-07-06T08:29:29.401Z,100466.23
2018-07-06T08:31:56.320Z,100461.40
2018-07-06T08:34:34.681Z,100467.51
2018-07-06T08:37:33.259Z,100463.46
2018-07-06T08:40:00.203Z,100463.69
2018-07-06T08:42:30.196Z,100468.35
2018-07-06T08:44:57.908Z,100465.57
2018-07-06T08:47:24.811Z,100475.22
2018-07-06T08:49:52.147Z,100470.36
2018-07-06T08:52:19.295Z,100475.13
2018-07-06T08:54:46.431Z,100484.20
2018-07-06T08:57:13.435Z,100483.16
2018-07-06T08:59:40.332Z,100494.23
2018-07-06T09:02:07.228Z,100497.45
2018-07-06T09:04:34.179Z,100495.94
2018-07-06T09:07:00.950Z,100483.97
2018-07-06T09:09:28.135Z,100479.35
2018-07-06T09:11:54.963Z,100475.13
2018-07-06T09:14:22.066Z,100483.98
2018-07-06T09:16:49.265Z,100488.56
2018-07-06T09:19:16.165Z,100494.89
2018-07-06T09:21:43.031Z,100484.94
2018-07-06T09:24:09.902Z,100488.25
2018-07-06T09:26:36.779Z,100489.95
2018-07-06T09:29:03.676Z,100481.37
2018-07-06T09:31:30.563Z,100489.38
2018-07-06T09:33:57.447Z,100494.73
2018-07-06T09:36:24.336Z,100499.19
2018-07-06T09:38:51.248Z,100490.99
2018-07-06T09:41:18.210Z,100492.23
2018-07-06T09:43:45.748Z,100495.10
2018-07-06T09:46:12.619Z,100493.11
2018-07-06T09:48:40.043Z,100484.18
2018-07-06T09:51:06.911Z,100490.27
2018-07-06T09:53:33.792Z,100498.95
2018-07-06T09:56:00.676Z,100488.98
2018-07-06T09:58:27.598Z,100489.53
2018-07-06T10:00:58.783Z,100506.50
2018-07-06T10:03:26.231Z,100496.58
2018-07-06T10:05:53.221Z,100498.64
2018-07-06T10:08:20.148Z,100501.55
2018-07-06T10:10:47.015Z,100500.55
2018-07-06T10:13:13.954Z,100496.20
2018-07-06T10:15:40.807Z,100490.52
2018-07-06T10:18:07.736Z,100495.96
2018-07-06T10:20:34.584Z,100505.73
2018-07-06T10:23:01.488Z,100503.77
2018-07-06T10:25:28.351Z,100504.20
2018-07-06T10:28:04.427Z,100498.91
2018-07-06T10:30:39.627Z,100495.90
2018-07-06T10:33:07.228Z,100490.86
2018-07-06T10:35:34.080Z,100504.07
2018-07-06T10:38:00.962Z,100504.69
2018-07-06T10:40:27.875Z,100508.09
2018-07-06T10:42:54.743Z,100506.81
2018-07-06T10:45:21.642Z,100506.27
2018-07-06T10:47:48.511Z,100507.16
2018-07-06T10:50:15.379Z,100506.94
2018-07-06T10:52:42.244Z,100514.77
2018-07-06T10:55:09.135Z,100499.30
2018-07-06T10:57:36.011Z,100502.39
2018-07-06T11:00:02.915Z,100507.34
2018-07-06T11:02:29.827Z,100503.98
2018-07-06T11:04:56.782Z,100508.79
2018-07-06T11:07:23.634Z,100499.40
2018-07-06T11:09:50.544Z,100502.88
2018-07-06T11:12:17.426Z,100496.88
2018-07-06T11:14:44.335Z,100506.91
2018-07-06T11:17:11.199Z,100514.48
2018-07-06T11:19:38.115Z,100505.71
2018-07-06T11:22:04.967Z,100506.39
2018-07-06T11:24:31.833Z,100505.08
2018-07-06T11:26:58.691Z,100501.02
2018-07-06T11:29:25.627Z,100515.52
2018-07-06T11:31:52.530Z,100510.41
2018-07-06T11:34:19.387Z,100516.70
2018-07-06T11:36:46.249Z,100510.05
2018-07-06T11:39:13.142Z,100500.38
2018-07-06T11:41:40.000Z,100506.42
2018-07-06T11:44:06.983Z,100500.48
2018-07-06T11:46:33.844Z,100506.78
2018-07-06T11:49:00.731Z,100507.05
2018-07-06T11:51:28.707Z,100499.68
2018-07-06T11:53:55.618Z,100511.75
2018-07-06T11:56:22.463Z,100502.53
2018-07-06T11:58:49.324Z,100496.16
2018-07-06T12:01:16.195Z,100504.55
2018-07-06T12:03:43.092Z,100503.69
2018-07-06T12:06:10.031Z,100500.66
2018-07-06T12:08:36.903Z,100502.00
2018-07-06T12:11:04.431Z,100500.41
2018-07-06T12:13:31.315Z,100494.36
2018-07-06T12:15:58.436Z,100499.33
2018-07-06T12:18:25.360Z,100502.48
2018-07-06T12:20:52.237Z,100490.33
2018-07-06T12:23:19.090Z,100493.22
2018-07-06T12:25:47.040Z,100490.81
2018-07-06T12:28:13.905Z,100490.44
2018-07-06T12:31:27.344Z,100496.88
2018-07-06T12:33:54.198Z,100497.66
2018-07-06T12:36:21.114Z,100488.44
2018-07-06T12:38:48.277Z,100487.43
2018-07-06T12:41:15.173Z,100493.06
2018-07-06T12:43:42.051Z,100503.86
2018-07-06T12:46:08.939Z,100492.16
2018-07-06T12:48:35.828Z,100485.31
2018-07-06T12:51:02.698Z,100491.77
2018-07-06T12:53:29.596Z,100486.12
2018-07-06T12:55:56.692Z,100472.98
2018-07-06T12:58:23.644Z,100481.08
2018-07-06T13:00:50.476Z,100478.19
2018-07-06T13:03:17.344Z,100487.24
2018-07-06T13:05:44.239Z,100487.00
2018-07-06T13:08:11.108Z,100492.52
2018-07-06T13:10:38.673Z,100483.17
2018-07-06T13:13:05.543Z,100485.81
2018-07-06T13:15:32.407Z,100484.63
2018-07-06T13:17:59.318Z,100480.98
2018-07-06T13:20:26.185Z,100475.14
2018-07-06T13:22:53.092Z,100470.14
2018-07-06T13:25:20.045Z,100471.84
2018-07-06T13:27:46.915Z,100471.63
2018-07-06T13:30:14.357Z,100474.09
2018-07-06T13:32:41.224Z,100476.28
2018-07-06T13:35:08.179Z,100469.12
2018-07-06T13:37:35.039Z,100483.55
2018-07-06T13:40:01.922Z,100479.09
2018-07-06T13:42:28.819Z,100476.03
2018-07-06T13:44:55.676Z,100478.28
2018-07-06T13:47:22.526Z,100477.12
2018-07-06T13:49:49.379Z,100485.00
2018-07-06T13:52:16.234Z,100471.33
2018-07-06T13:54:43.131Z,100468.96
2018-07-06T13:57:11.219Z,100463.62
2018-07-06T13:59:38.095Z,100463.82
2018-07-06T14:02:05.071Z,100466.29
2018-07-06T14:04:31.947Z,100463.06
2018-07-06T14:07:01.845Z,100461.19
2018-07-06T14:09:28.713Z,100462.27
2018-07-06T14:11:55.718Z,100471.10
2018-07-06T14:14:25.599Z,100470.29
2018-07-06T14:16:52.475Z,100469.08
2018-07-06T14:19:19.342Z,100474.07
2018-07-06T14:21:46.303Z,100462.69
2018-07-06T14:24:13.371Z,100467.09
2018-07-06T14:26:40.315Z,100462.01
2018-07-06T14:29:07.175Z,100466.20
2018-07-06T14:31:36.052Z,100462.95
2018-07-06T14:34:06.196Z,100473.19
2018-07-06T14:36:36.071Z,100469.65
2018-07-06T14:39:04.208Z,100473.42
2018-07-06T14:41:31.056Z,100481.92
2018-07-06T14:43:57.923Z,100476.73
2018-07-06T14:46:24.832Z,100471.53
2018-07-06T14:48:51.732Z,100473.68
2018-07-06T14:51:18.648Z,100472.98
2018-07-06T14:53:45.505Z,100480.00
2018-07-06T14:56:12.379Z,100473.33
2018-07-06T14:58:39.239Z,100477.48
2018-07-06T15:01:09.111Z,100477.53
2018-07-06T15:03:35.975Z,100478.04
2018-07-06T15:06:03.841Z,100477.16
2018-07-06T15:08:30.700Z,100477.05
2018-07-06T15:10:57.607Z,100483.59
2018-07-06T15:13:25.570Z,100485.28
2018-07-06T15:15:53.997Z,100479.52
2018-07-06T15:18:20.868Z,100482.16
2018-07-06T15:20:47.719Z,100476.05
2018-07-06T15:23:14.600Z,100477.63
2018-07-06T15:25:41.463Z,100467.81
2018-07-06T15:28:08.331Z,100461.20
2018-07-06T15:30:35.190Z,100461.31
2018-07-06T15:33:02.067Z,100462.05
2018-07-06T15:35:28.927Z,100456.70
2018-07-06T15:37:55.799Z,100462.42
2018-07-06T15:40:22.812Z,100460.68
2018-07-06T15:42:53.205Z,100456.75
2018-07-06T15:45:20.136Z,100454.40
2018-07-06T15:47:47.039Z,100459.48
2018-07-06T15:50:13.948Z,100467.13
2018-07-06T15:52:40.791Z,100464.75
2018-07-06T15:55:07.696Z,100463.02
2018-07-06T15:57:34.642Z,100469.76
2018-07-06T16:00:01.476Z,100455.58
2018-07-06T16:02:28.336Z,100468.38
2018-07-06T16:04:55.239Z,100461.67
2018-07-06T16:07:22.155Z,100458.89
2018-07-06T16:09:49.040Z,100466.73
2018-07-06T16:12:15.903Z,100471.84
2018-07-06T16:14:42.810Z,100471.19
2018-07-06T16:17:09.672Z,100469.57
2018-07-06T16:19:36.761Z,100464.75
2018-07-06T16:22:03.631Z,100470.39
2018-07-06T16:24:30.584Z,100467.10
2018-07-06T16:26:57.505Z,100468.52
2018-07-06T16:29:24.414Z,100465.23
2018-07-06T16:31:51.354Z,100464.16
2018-07-06T16:34:18.230Z,100460.63
2018-07-06T16:36:45.116Z,100461.17
2018-07-06T16:39:12.135Z,100460.34
2018-07-06T16:41:40.031Z,100460.89
2018-07-06T16:44:07.021Z,100458.27
2018-07-06T16:46:33.864Z,100462.26
2018-07-06T16:49:01.058Z,100460.92
2018-07-06T16:51:27.943Z,100456.84
2018-07-06T16:53:54.799Z,100465.91
2018-07-06T16:56:21.668Z,100472.45
2018-07-06T16:58:48.609Z,100477.50
2018-07-06T17:01:15.501Z,100484.26
2018-07-06T17:03:42.415Z,100480.41
2018-07-06T17:06:09.283Z,100479.09
2018-07-06T17:08:37.031Z,100479.44
2018-07-06T17:11:03.948Z,100478.64
2018-07-06T17:13:30.813Z,100486.86
2018-07-06T17:15:57.715Z,100487.36
2018-07-06T17:18:24.580Z,100492.17
2018-07-06T17:20:51.439Z,100484.84
2018-07-06T17:23:19.118Z,100486.57
2018-07-06T17:25:45.991Z,100493.58
2018-07-06T17:28:12.912Z,100502.69
2018-07-06T17:30:39.795Z,100500.70
2018-07-06T17:33:06.719Z,100497.72
2018-07-06T17:35:33.578Z,100497.34
2018-07-06T17:38:00.473Z,100496.45
2018-07-06T17:40:33.603Z,100497.16
2018-07-06T17:43:00.475Z,100492.78
2018-07-06T17:45:29.852Z,100501.63
2018-07-06T17:47:57.620Z,100506.78
2018-07-06T17:50:24.557Z,100501.69
2018-07-06T17:52:51.360Z,100505.20
2018-07-06T17:55:18.223Z,100513.27
2018-07-06T17:57:45.201Z,100513.55
2018-07-06T18:00:12.076Z,100512.46
2018-07-06T18:02:38.932Z,100510.55
2018-07-06T18:05:05.794Z,100521.54
2018-07-06T18:07:32.897Z,100526.91
2018-07-06T18:09:59.715Z,100523.66
2018-07-06T18:12:26.615Z,100528.77
2018-07-06T18:14:53.527Z,100528.13
2018-07-06T18:17:20.432Z,100537.95
2018-07-06T18:19:47.339Z,100541.72
2018-07-06T18:22:14.245Z,100543.86
2018-07-06T18:24:41.148Z,100545.11
2018-07-06T18:27:08.023Z,100541.39
2018-07-06T18:29:34.948Z,100543.77
2018-07-06T18:32:01.857Z,100544.10
2018-07-06T18:34:28.719Z,100550.20
2018-07-06T18:36:55.597Z,100552.66
2018-07-06T18:39:22.496Z,100548.33
2018-07-06T18:41:49.408Z,100564.12
2018-07-06T18:44:16.282Z,100563.01
2018-07-06T18:46:44.028Z,100562.42
2018-07-06T18:49:10.898Z,100563.46
2018-07-06T18:51:37.791Z,100568.67
2018-07-06T18:54:04.658Z,100567.41
2018-07-06T18:56:31.543Z,100571.18
2018-07-06T18:58:58.410Z,100578.22
2018-07-06T19:01:25.319Z,100575.61
2018-07-06T19:03:52.146Z,100575.04
2018-07-06T19:06:19.020Z,100577.13
2018-07-06T19:08:46.020Z,100585.00
2018-07-06T19:11:12.883Z,100590.44
2018-07-06T19:13:39.743Z,100595.88
2018-07-06T19:16:06.621Z,100597.59
2018-07-06T19:18:33.477Z,100600.56
2018-07-06T19:21:00.407Z,100598.49
2018-07-06T19:23:27.307Z,100610.53
2018-07-06T19:25:54.303Z,100614.92
2018-07-06T19:28:21.185Z,100614.64
2018-07-06T19:30:54.267Z,100621.83
2018-07-06T19:33:21.095Z,100626.62
2018-07-06T19:35:48.516Z,100639.82
2018-07-06T19:38:15.374Z,100639.23
2018-07-06T19:40:42.235Z,100644.73
2018-07-06T19:43:16.620Z,100654.73
2018-07-06T19:45:43.492Z,100658.67
2018-07-06T19:48:10.412Z,100662.11
2018-07-06T19:50:37.268Z,100669.73
2018-07-06T19:53:04.211Z,100673.06
2018-07-06T19:55:31.652Z,100677.25
2018-07-06T19:57:58.528Z,100678.77
2018-07-06T20:00:25.463Z,100684.56
2018-07-06T20:02:52.569Z,100686.11
2018-07-06T20:05:19.483Z,100691.75
2018-07-06T20:07:46.379Z,100688.33
2018-07-06T20:10:13.211Z,100690.25
2018-07-06T20:12:43.091Z,100696.83
2018-07-06T20:15:09.980Z,100701.86
2018-07-06T20:17:36.823Z,100708.69
2018-07-06T20:20:05.933Z,100704.48
2018-07-06T20:22:32.775Z,100712.42
2018-07-06T20:24:59.645Z,100715.89
2018-07-06T20:27:26.511Z,100714.25
2018-07-06T20:29:53.371Z,100716.66
2018-07-06T20:32:20.223Z,100719.17
2018-07-06T20:34:47.097Z,100722.20
2018-07-06T20:37:13.963Z,100721.07
2018-07-06T20:39:40.851Z,100732.00
2018-07-06T20:42:07.771Z,100728.30
2018-07-06T20:44:34.626Z,100737.27
2018-07-06T20:47:01.524Z,100736.92
2018-07-06T20:49:28.383Z,100734.66
2018-07-06T20:51:55.238Z,100740.84
2018-07-06T20:54:22.132Z,100735.11
2018-07-06T20:56:49.000Z,100735.75
2018-07-06T20:59:15.863Z,100732.26
2018-07-06T21:01:42.719Z,100737.89
2018-07-06T21:04:09.716Z,100745.97
2018-07-06T21:06:37.218Z,100748.98
2018-07-06T21:09:05.371Z,100750.39
2018-07-06T21:11:32.253Z,100754.55
2018-07-06T21:13:59.106Z,100754.97
2018-07-06T21:16:26.012Z,100755.09
2018-07-06T21:18:53.119Z,100759.04
2018-07-06T21:21:19.970Z,100754.90
2018-07-06T21:23:46.817Z,100757.66
2018-07-06T21:26:13.667Z,100761.77
2018-07-06T21:28:42.160Z,100764.91
2018-07-06T21:31:09.003Z,100768.14
2018-07-06T21:33:35.850Z,100766.77
2018-07-06T21:36:02.904Z,100770.86
2018-07-06T21:38:29.772Z,100767.42
2018-07-06T21:40:56.630Z,100773.04
2018-07-06T21:43:23.508Z,100773.45
2018-07-06T21:45:50.359Z,100772.58
2018-07-06T21:48:17.247Z,100773.48
2018-07-06T21:50:44.108Z,100771.96
2018-07-06T21:53:11.057Z,100766.01
2018-07-06T21:55:37.843Z,100765.59
2018-07-06T21:58:04.699Z,100767.83
2018-07-06T22:00:37.951Z,100759.73
2018-07-06T22:03:05.351Z,100772.04
2018-07-06T22:05:32.220Z,100769.45
2018-07-06T22:07:59.284Z,100763.37
2018-07-06T22:10:26.131Z,100764.32
2018-07-06T22:12:52.967Z,100771.40
2018-07-06T22:15:19.852Z,100769.95
2018-07-06T22:17:46.811Z,100776.43
2018-07-06T22:20:13.665Z,100773.14
2018-07-06T22:22:40.585Z,100777.80
2018-07-06T22:25:07.391Z,100775.78
2018-07-06T22:27:34.228Z,100773.56
2018-07-06T22:30:01.079Z,100780.41
2018-07-06T22:32:27.943Z,100776.27
2018-07-06T22:34:54.766Z,100785.18
2018-07-06T22:37:23.127Z,100782.25
2018-07-06T22:39:54.048Z,100783.70
2018-07-06T22:42:22.734Z,100783.75
2018-07-06T22:44:49.632Z,100783.55
2018-07-06T22:47:16.495Z,100788.14
2018-07-06T22:49:43.347Z,100785.93
2018-07-06T22:52:10.206Z,100786.27
2018-07-06T22:54:37.103Z,100785.68
2018-07-06T22:57:03.971Z,100789.70
2018-07-06T22:59:30.831Z,100791.83
2018-07-06T23:01:57.686Z,100778.30
2018-07-06T23:04:24.557Z,100777.59
2018-07-06T23:06:51.427Z,100780.55
2018-07-06T23:09:18.271Z,100781.44
2018-07-06T23:11:45.147Z,100777.30
2018-07-06T23:14:12.000Z,100790.39
2018-07-06T23:16:38.848Z,100782.36
2018-07-06T23:19:05.707Z,100785.83
2018-07-06T23:21:32.559Z,100789.19
2018-07-06T23:23:59.432Z,100788.20
2018-07-06T23:26:26.288Z,100789.14
2018-07-06T23:28:53.183Z,100786.91
2018-07-06T23:31:20.059Z,100785.09
2018-07-06T23:33:46.919Z,100786.23
2018-07-06T23:36:13.788Z,100784.45
2018-07-06T23:38:40.643Z,100785.52
2018-07-06T23:41:07.500Z,100788.70
2018-07-06T23:43:34.364Z,100784.58
2018-07-06T23:46:01.311Z,100792.47
2018-07-06T23:48:28.191Z,100794.41
2018-07-06T23:50:55.048Z,100789.46
2018-07-06T23:53:21.891Z,100793.14
2018-07-06T23:55:48.780Z,100797.23
2018-07-06T23:58:15.688Z,100797.60
